Amparo, Brazil
Current Conditions -  °F | °C
As of 10:00 PM on Wednesday 17 Dec 2014 (Local Time) from SBLS Reporting Station
Clear Clear  
Wind Chill: 75°   Ceiling: Unl
Heat Index: 75°   Visibility: 6mi
Dew Point: 63°   Wind: 8mph
Humidity: 65%   Direction: 130°SE
Pressure: 29.97"   Gusts: NA
Location:  19.7°S, 43.47°W
Report Text: SBLS 180000Z 13007KT CAVOK 24/17 Q1015
Loading
Personal Weather Stations






























Interactive Weather Map New forecast layout! Learn more

10-Day Weather Forecast

Advertisements
Track Severe Weather on mobile